Terminal Aerodrome Forecast
Issued by NWS Bismarck, ND

Home | Current Version | Previous Version | Graphics & Text | Print | Product List | Glossary Off
Versions: 1 2 3 4 5 6 7 8 9 10 11 12 13 14 15 16 17 18 19

998
FTUS43 KBIS 210527
TAFBIS
TAF
KBIS 210527Z 2106/2206 16010KT P6SM SKC
     FM210800 16008KT P6SM SCT130 BKN250 WS020/19035KT
     FM211500 17018G26KT P6SM FEW120 SCT200
     FM212200 30010KT P6SM FEW120 FEW250=

USA.gov is the U.S. government's official web portal to all federal, state and local government web resources and services.